createdAt,value
2022-08-21T00:06:05.168Z,97831.41
2022-08-21T00:07:22.557Z,97825.84
2022-08-21T00:08:06.232Z,97830.34
2022-08-21T00:08:54.759Z,97826.84
2022-08-21T00:12:49.082Z,97822.50
2022-08-21T00:14:00.486Z,97813.06
2022-08-21T00:14:40.200Z,97809.31
2022-08-21T00:15:56.406Z,97813.75
2022-08-21T00:16:29.846Z,97814.03
2022-08-21T00:50:21.920Z,97813.22
2022-08-21T00:57:26.092Z,97809.09
2022-08-21T00:58:05.190Z,97795.91
2022-08-21T00:59:01.739Z,97809.06
2022-08-21T01:00:23.498Z,97802.00
2022-08-21T01:00:59.561Z,97808.22
2022-08-21T01:03:25.909Z,97803.00
2022-08-21T01:31:00.217Z,97795.34
2022-08-21T01:31:53.439Z,97788.44
2022-08-21T01:34:38.397Z,97792.88
2022-08-21T01:36:01.240Z,97792.84
2022-08-21T01:36:49.938Z,97795.44
2022-08-21T01:37:31.346Z,97799.81
2022-08-21T01:38:20.258Z,97797.72
2022-08-21T01:45:02.416Z,97791.47
2022-08-21T01:45:49.240Z,97785.59
2022-08-21T01:46:55.007Z,97785.28
2022-08-21T01:47:44.627Z,97791.00
2022-08-21T02:29:02.481Z,97783.78
2022-08-21T02:29:16.748Z,97787.94
2022-08-21T02:30:00.386Z,97785.25
2022-08-21T02:31:08.519Z,97780.72
2022-08-21T02:31:27.190Z,97783.13
2022-08-21T02:31:45.739Z,97789.63
2022-08-21T02:32:02.523Z,97789.63
2022-08-21T02:32:19.247Z,97789.63
2022-08-21T02:32:36.319Z,97792.22
2022-08-21T02:32:53.011Z,97787.38
2022-08-21T02:33:17.997Z,97785.41
2022-08-21T02:33:31.553Z,97786.19
2022-08-21T02:33:48.572Z,97782.56
2022-08-21T02:34:16.763Z,97787.69
2022-08-21T02:34:33.619Z,97784.72
2022-08-21T02:34:54.005Z,97791.78
2022-08-21T02:35:17.049Z,97782.56
2022-08-21T02:35:33.120Z,97790.22
2022-08-21T02:36:05.594Z,97789.78
2022-08-21T02:37:00.176Z,97789.16
2022-08-21T02:37:43.213Z,97788.94
2022-08-21T02:38:07.568Z,97793.91
2022-08-21T02:38:31.173Z,97791.13
2022-08-21T02:38:49.647Z,97785.81
2022-08-21T02:39:11.403Z,97791.09
2022-08-21T02:39:30.074Z,97789.44
2022-08-21T02:39:47.195Z,97791.56
2022-08-21T02:40:28.725Z,97786.94
2022-08-21T02:41:04.086Z,97795.34
2022-08-21T02:41:18.803Z,97784.31
2022-08-21T02:41:32.855Z,97785.91
2022-08-21T02:41:46.950Z,97788.25
2022-08-21T02:42:03.201Z,97789.94
2022-08-21T02:42:18.501Z,97786.97
2022-08-21T02:42:35.583Z,97790.22
2022-08-21T02:42:52.383Z,97789.22
2022-08-21T02:43:12.896Z,97784.25
2022-08-21T02:43:28.815Z,97782.13
2022-08-21T02:43:42.190Z,97788.25
2022-08-21T02:43:55.928Z,97784.59
2022-08-21T02:44:09.204Z,97781.22
2022-08-21T02:44:34.470Z,97785.75
2022-08-21T02:44:53.473Z,97786.75
2022-08-21T02:45:13.035Z,97784.00
2022-08-21T02:45:26.901Z,97785.16
2022-08-21T02:45:42.663Z,97784.16
2022-08-21T02:46:01.615Z,97787.25
2022-08-21T02:46:20.717Z,97781.72
2022-08-21T02:46:49.744Z,97783.41
2022-08-21T02:47:06.045Z,97784.63
2022-08-21T02:47:22.556Z,97788.53
2022-08-21T02:48:01.496Z,97783.97
2022-08-21T02:48:19.550Z,97776.91
2022-08-21T02:48:43.184Z,97770.94
2022-08-21T02:49:01.544Z,97791.03
2022-08-21T02:49:23.352Z,97788.94
2022-08-21T02:49:42.959Z,97792.06
2022-08-21T02:50:06.459Z,97793.06
2022-08-21T02:50:28.491Z,97783.72
2022-08-21T02:50:50.712Z,97788.84
2022-08-21T02:51:17.323Z,97788.38
2022-08-21T02:51:34.375Z,97784.88
2022-08-21T02:51:49.971Z,97787.09
2022-08-21T02:52:07.122Z,97787.41
2022-08-21T02:52:23.110Z,97787.09
2022-08-21T02:52:39.098Z,97785.13
2022-08-21T02:52:55.794Z,97790.78
2022-08-21T02:53:11.891Z,97783.72
2022-08-21T02:53:26.537Z,97783.72
2022-08-21T02:53:43.433Z,97784.00
2022-08-21T02:54:02.011Z,97783.44
2022-08-21T02:54:18.011Z,97788.22
2022-08-21T02:54:32.616Z,97790.78
2022-08-21T02:54:47.239Z,97784.25
2022-08-21T02:55:02.927Z,97783.94
2022-08-21T02:55:17.051Z,97785.63
2022-08-21T02:55:32.999Z,97789.09
2022-08-21T02:55:52.569Z,97791.22
2022-08-21T02:56:08.607Z,97785.09
2022-08-21T02:56:27.109Z,97793.03
2022-08-21T02:56:45.250Z,97785.63
2022-08-21T02:56:58.854Z,97781.25
2022-08-21T02:57:17.261Z,97780.56
2022-08-21T02:57:33.767Z,97789.88
2022-08-21T02:57:47.598Z,97787.62
2022-08-21T02:58:08.589Z,97791.91
2022-08-21T02:58:42.661Z,97784.56
2022-08-21T02:59:09.658Z,97781.44
2022-08-21T02:59:33.819Z,97785.41
2022-08-21T03:00:15.769Z,97785.09
2022-08-21T03:01:14.252Z,97786.62
2022-08-21T03:01:28.330Z,97784.00
2022-08-21T03:01:45.573Z,97778.25
2022-08-21T03:02:22.111Z,97779.41
2022-08-21T03:03:19.397Z,97779.41
2022-08-21T03:03:40.593Z,97776.56
2022-08-21T03:04:09.978Z,97777.06
2022-08-21T03:04:34.514Z,97772.28
2022-08-21T03:04:54.352Z,97779.69
2022-08-21T03:05:12.164Z,97765.88
2022-08-21T03:05:41.906Z,97772.38
2022-08-21T03:05:56.359Z,97773.94
2022-08-21T03:06:22.050Z,97784.09
2022-08-21T03:06:35.618Z,97768.16
2022-08-21T03:06:54.384Z,97770.94
2022-08-21T03:07:17.421Z,97769.13
2022-08-21T03:07:41.982Z,97770.09
2022-08-21T03:07:59.180Z,97771.81
2022-08-21T03:08:13.450Z,97775.91
2022-08-21T03:08:28.923Z,97775.53
2022-08-21T03:09:26.572Z,97775.50
2022-08-21T03:09:55.220Z,97771.94
2022-08-21T03:10:41.834Z,97777.25
2022-08-21T03:10:48.109Z,97781.19
2022-08-21T03:11:32.957Z,97775.87
2022-08-21T03:11:56.276Z,97776.03
2022-08-21T03:12:09.871Z,97769.97
2022-08-21T03:12:30.091Z,97781.56
2022-08-21T03:13:26.145Z,97778.31
2022-08-21T03:13:47.618Z,97774.87
2022-08-21T03:15:13.084Z,97783.59
2022-08-21T03:15:32.818Z,97770.84
2022-08-21T03:18:29.409Z,97782.37
2022-08-21T03:18:48.399Z,97785.59
2022-08-21T03:19:05.184Z,97778.75
2022-08-21T03:19:24.584Z,97779.28
2022-08-21T03:19:41.514Z,97780.72
2022-08-21T03:21:47.169Z,97774.13
2022-08-21T03:22:06.089Z,97777.25
2022-08-21T03:23:20.415Z,97784.34
2022-08-21T03:23:48.557Z,97771.03
2022-08-21T03:25:39.677Z,97780.91
2022-08-21T03:26:12.592Z,97778.91
2022-08-21T03:26:34.958Z,97783.13
2022-08-21T03:26:56.171Z,97776.91
2022-08-21T03:27:15.613Z,97779.88
2022-08-21T03:27:33.275Z,97778.81
2022-08-21T03:28:02.386Z,97779.56
2022-08-21T03:28:25.996Z,97778.03
2022-08-21T03:28:43.537Z,97780.28
2022-08-21T03:28:59.117Z,97782.31
2022-08-21T03:29:25.450Z,97784.00
2022-08-21T03:29:41.330Z,97778.34
2022-08-21T03:29:55.663Z,97783.13
2022-08-21T03:30:12.506Z,97779.03
2022-08-21T03:30:43.607Z,97778.03
2022-08-21T03:31:02.435Z,97776.56
2022-08-21T03:31:35.550Z,97778.56
2022-08-21T03:31:57.687Z,97778.56
2022-08-21T03:32:30.511Z,97774.22
2022-08-21T03:32:47.380Z,97778.22
2022-08-21T03:33:13.183Z,97784.06
2022-08-21T03:33:28.607Z,97784.13
2022-08-21T03:33:45.462Z,97780.19
2022-08-21T03:34:18.841Z,97779.47
2022-08-21T03:34:47.778Z,97786.41
2022-08-21T03:35:08.486Z,97781.06
2022-08-21T03:35:23.033Z,97785.47
2022-08-21T03:35:38.683Z,97778.16
2022-08-21T03:36:18.242Z,97785.13
2022-08-21T03:36:38.005Z,97784.75
2022-08-21T03:36:57.732Z,97788.59
2022-08-21T03:37:34.791Z,97791.97
2022-08-21T03:37:54.925Z,97784.31
2022-08-21T03:38:14.211Z,97791.63
2022-08-21T03:38:39.194Z,97790.87
2022-08-21T03:39:08.817Z,97789.28
2022-08-21T03:39:39.674Z,97788.16
2022-08-21T03:40:01.172Z,97785.84
2022-08-21T03:40:19.178Z,97787.69
2022-08-21T03:41:05.161Z,97785.78
2022-08-21T03:41:18.634Z,97790.03
2022-08-21T03:41:35.153Z,97790.91
2022-08-21T03:41:48.686Z,97785.25
2022-08-21T03:42:08.457Z,97796.72
2022-08-21T03:42:22.633Z,97791.19
2022-08-21T03:42:52.029Z,97786.53
2022-08-21T03:43:05.873Z,97788.22
2022-08-21T03:43:38.007Z,97791.03
2022-08-21T03:43:52.222Z,97785.78
2022-08-21T03:44:18.000Z,97776.53
2022-08-21T03:45:00.791Z,97789.91
2022-08-21T03:45:18.870Z,97788.75
2022-08-21T03:45:33.693Z,97787.16
2022-08-21T03:45:57.558Z,97784.31
2022-08-21T03:46:20.506Z,97783.47
2022-08-21T03:47:24.001Z,97791.88
2022-08-21T03:47:43.758Z,97784.91
2022-08-21T03:48:15.836Z,97784.00
2022-08-21T03:48:43.934Z,97791.37
2022-08-21T03:49:05.081Z,97789.53
2022-08-21T03:49:24.920Z,97788.84
2022-08-21T03:49:42.472Z,97783.44
2022-08-21T03:50:09.571Z,97789.59
2022-08-21T03:50:29.982Z,97779.38
2022-08-21T03:51:44.498Z,97784.88
2022-08-21T03:52:00.152Z,97789.69
2022-08-21T03:52:21.698Z,97785.78
2022-08-21T03:52:37.151Z,97791.75
2022-08-21T03:52:59.831Z,97781.53
2022-08-21T03:53:37.378Z,97782.72
2022-08-21T03:53:52.969Z,97789.69
2022-08-21T03:54:11.209Z,97783.13
2022-08-21T03:54:28.948Z,97789.47
2022-08-21T03:54:45.559Z,97783.56
2022-08-21T03:55:24.428Z,97787.69
2022-08-21T03:56:08.502Z,97789.00
2022-08-21T03:56:45.391Z,97788.31
2022-08-21T03:57:05.937Z,97790.63
2022-08-21T03:57:33.176Z,97787.16
2022-08-21T03:57:49.920Z,97790.84
2022-08-21T03:58:16.557Z,97785.19
2022-08-21T03:58:38.436Z,97790.28
2022-08-21T03:59:03.538Z,97790.28
2022-08-21T03:59:26.441Z,97786.16
2022-08-21T03:59:47.125Z,97794.56
2022-08-21T04:00:15.450Z,97791.94
2022-08-21T04:00:45.231Z,97789.47
2022-08-21T04:01:05.644Z,97791.03
2022-08-21T04:01:33.155Z,97788.50
2022-08-21T04:02:03.561Z,97790.22
2022-08-21T04:02:28.958Z,97790.78
2022-08-21T04:02:45.103Z,97790.03
2022-08-21T04:03:01.576Z,97800.59
2022-08-21T04:03:17.710Z,97787.16
2022-08-21T04:03:40.533Z,97792.72
2022-08-21T04:04:11.691Z,97789.59
2022-08-21T04:04:35.328Z,97790.56
2022-08-21T04:04:55.912Z,97791.72
2022-08-21T04:05:44.536Z,97790.03
2022-08-21T04:06:10.409Z,97797.13
2022-08-21T04:06:37.598Z,97800.81
2022-08-21T04:07:02.958Z,97795.72
2022-08-21T04:07:19.771Z,97795.56
2022-08-21T04:07:46.983Z,97793.81
2022-08-21T04:09:22.367Z,97794.91
2022-08-21T04:10:04.456Z,97801.62
2022-08-21T04:10:36.906Z,97800.75
2022-08-21T04:11:58.013Z,97801.91
2022-08-21T04:12:01.348Z,97802.50
2022-08-21T04:12:21.809Z,97799.06
2022-08-21T04:12:38.519Z,97808.13
2022-08-21T04:12:58.885Z,97805.28
2022-08-21T04:13:33.848Z,97803.75
2022-08-21T04:14:23.362Z,97803.41
2022-08-21T04:14:50.907Z,97804.22
2022-08-21T04:15:40.928Z,97807.38
2022-08-21T04:16:03.937Z,97801.66
2022-08-21T04:16:23.111Z,97796.28
2022-08-21T04:16:54.853Z,97802.81
2022-08-21T04:17:13.948Z,97802.66
2022-08-21T04:17:28.385Z,97802.66
2022-08-21T04:17:43.311Z,97804.22
2022-08-21T04:18:00.540Z,97795.25
2022-08-21T04:18:21.111Z,97806.72
2022-08-21T04:18:41.847Z,97804.03
2022-08-21T04:19:04.505Z,97804.47
2022-08-21T04:19:26.118Z,97805.59
2022-08-21T04:19:42.927Z,97807.00
2022-08-21T04:19:59.574Z,97804.63
2022-08-21T04:20:19.298Z,97805.41
2022-08-21T04:20:45.459Z,97803.09
2022-08-21T04:21:17.016Z,97803.59
2022-08-21T04:21:34.083Z,97804.47
2022-08-21T04:21:48.080Z,97808.63
2022-08-21T04:22:17.381Z,97802.25
2022-08-21T04:22:45.539Z,97802.25
2022-08-21T04:23:12.025Z,97799.41
2022-08-21T04:23:36.986Z,97804.50
2022-08-21T04:24:03.770Z,97804.47
2022-08-21T04:24:24.273Z,97807.16
2022-08-21T04:24:42.996Z,97809.84
2022-08-21T04:25:50.016Z,97810.34
2022-08-21T04:26:43.949Z,97806.34
2022-08-21T04:26:58.591Z,97806.66
2022-08-21T04:27:15.040Z,97814.91
2022-08-21T04:27:34.565Z,97802.75
2022-08-21T04:27:57.076Z,97808.81
2022-08-21T04:28:12.369Z,97802.62
2022-08-21T04:28:30.458Z,97810.16
2022-08-21T04:28:58.379Z,97806.47
2022-08-21T04:29:51.530Z,97808.53
2022-08-21T04:31:00.140Z,97795.66
2022-08-21T04:31:04.887Z,97811.97
2022-08-21T04:31:41.592Z,97816.91
2022-08-21T04:32:09.061Z,97805.69
2022-08-21T04:32:29.258Z,97814.03
2022-08-21T04:32:56.912Z,97812.34
2022-08-21T04:33:13.556Z,97812.34
2022-08-21T04:33:34.892Z,97809.84
2022-08-21T04:33:48.439Z,97806.72
2022-08-21T04:34:20.309Z,97816.22
2022-08-21T04:34:47.351Z,97810.47
2022-08-21T04:35:12.475Z,97810.88
2022-08-21T04:35:34.546Z,97810.47
2022-08-21T04:36:18.700Z,97811.41
2022-08-21T04:36:36.067Z,97807.44
2022-08-21T04:36:54.835Z,97808.72
2022-08-21T04:37:29.609Z,97800.44
2022-08-21T04:38:04.737Z,97805.44
2022-08-21T04:38:53.738Z,97808.66
2022-08-21T04:39:10.531Z,97811.91
2022-08-21T04:39:39.732Z,97815.53
2022-08-21T04:40:02.003Z,97802.16
2022-08-21T04:40:33.777Z,97804.84
2022-08-21T04:40:49.746Z,97810.91
2022-08-21T04:41:29.298Z,97814.03
2022-08-21T04:42:11.737Z,97806.19
2022-08-21T04:42:28.964Z,97817.97
2022-08-21T04:42:58.922Z,97805.63
2022-08-21T04:43:13.749Z,97804.50
2022-08-21T04:43:29.852Z,97809.62
2022-08-21T04:43:47.441Z,97806.94
2022-08-21T04:44:07.027Z,97803.69
2022-08-21T04:44:29.204Z,97810.88
2022-08-21T04:45:08.315Z,97811.00
2022-08-21T04:45:33.578Z,97804.63
2022-08-21T04:46:01.224Z,97811.84
2022-08-21T04:46:25.230Z,97813.53
2022-08-21T04:46:46.632Z,97815.09
2022-08-21T04:47:04.698Z,97813.22
2022-08-21T04:47:21.083Z,97819.75
2022-08-21T04:47:41.848Z,97813.75
2022-08-21T04:48:19.183Z,97817.78
2022-08-21T04:49:02.168Z,97808.16
2022-08-21T04:49:18.659Z,97813.53
2022-08-21T04:49:34.573Z,97813.72
2022-08-21T04:49:51.085Z,97815.59
2022-08-21T04:50:38.705Z,97815.34
2022-08-21T04:51:22.689Z,97818.03
2022-08-21T04:51:39.759Z,97815.75
2022-08-21T04:51:55.644Z,97818.66
2022-08-21T04:52:15.798Z,97823.63
2022-08-21T04:52:38.507Z,97824.72
2022-08-21T04:52:54.207Z,97820.91
2022-08-21T04:53:47.876Z,97817.62
2022-08-21T04:54:17.933Z,97816.41
2022-08-21T04:54:31.313Z,97825.47
2022-08-21T04:54:47.092Z,97822.06
2022-08-21T04:55:01.627Z,97818.09
2022-08-21T04:55:19.357Z,97819.81
2022-08-21T04:55:44.261Z,97821.25
2022-08-21T04:56:04.217Z,97820.38
2022-08-21T04:56:42.725Z,97822.50
2022-08-21T04:57:09.509Z,97819.94
2022-08-21T04:57:22.943Z,97821.50
2022-08-21T04:57:56.101Z,97817.88
2022-08-21T04:58:19.961Z,97829.19
2022-08-21T04:58:57.267Z,97820.09
2022-08-21T04:59:22.525Z,97821.09
2022-08-21T04:59:44.568Z,97829.03
2022-08-21T04:59:58.106Z,97822.34
2022-08-21T05:00:14.415Z,97826.19
2022-08-21T05:00:27.837Z,97828.47
2022-08-21T05:00:41.979Z,97828.00
2022-08-21T05:00:55.790Z,97830.25
2022-08-21T05:01:13.412Z,97823.44
2022-08-21T05:01:27.758Z,97825.00
2022-08-21T05:01:42.465Z,97819.63
2022-08-21T05:01:59.098Z,97822.00
2022-08-21T05:02:14.206Z,97819.00
2022-08-21T05:02:28.172Z,97826.22
2022-08-21T05:02:41.758Z,97823.25
2022-08-21T05:03:00.596Z,97835.56
2022-08-21T05:03:14.855Z,97827.38
2022-08-21T05:03:28.985Z,97829.66
2022-08-21T05:03:42.418Z,97818.72
2022-08-21T05:03:57.787Z,97818.16
2022-08-21T05:04:14.422Z,97823.00
2022-08-21T05:04:30.494Z,97824.38
2022-08-21T05:04:46.829Z,97827.06
2022-08-21T05:05:00.693Z,97816.03
2022-08-21T05:05:15.220Z,97829.91
2022-08-21T05:05:34.434Z,97826.03
2022-08-21T05:05:47.673Z,97830.94
2022-08-21T05:06:02.114Z,97826.97
2022-08-21T05:06:16.032Z,97831.22
2022-08-21T05:06:31.198Z,97828.47
2022-08-21T05:06:49.714Z,97821.63
2022-08-21T05:07:05.399Z,97824.16
2022-08-21T05:07:41.599Z,97821.16
2022-08-21T05:07:55.001Z,97829.22
2022-08-21T05:08:08.762Z,97824.28
2022-08-21T05:08:26.960Z,97824.72
2022-08-21T05:08:40.921Z,97825.16
2022-08-21T05:08:55.822Z,97822.88
2022-08-21T05:09:19.443Z,97820.59
2022-08-21T05:09:33.289Z,97820.00
2022-08-21T05:09:47.586Z,97822.88
2022-08-21T05:10:21.883Z,97823.59
2022-08-21T05:10:35.374Z,97818.31
2022-08-21T05:10:49.118Z,97823.13
2022-08-21T05:11:04.138Z,97826.06
2022-08-21T05:11:18.621Z,97824.38
2022-08-21T05:11:32.049Z,97829.06
2022-08-21T05:11:46.321Z,97825.09
2022-08-21T05:12:00.813Z,97824.28
2022-08-21T05:12:14.960Z,97830.84
2022-08-21T05:12:28.671Z,97827.69
2022-08-21T05:12:43.131Z,97822.84
2022-08-21T05:12:57.069Z,97833.91
2022-08-21T05:13:11.239Z,97831.94
2022-08-21T05:13:24.447Z,97824.00
2022-08-21T05:13:38.470Z,97821.25
2022-08-21T05:13:57.052Z,97826.97
2022-08-21T05:14:12.830Z,97827.66
2022-08-21T05:14:28.395Z,97828.63
2022-08-21T05:14:43.508Z,97822.25
2022-08-21T05:14:57.961Z,97830.34
2022-08-21T05:15:14.395Z,97822.38
2022-08-21T05:15:27.814Z,97819.56
2022-08-21T05:15:43.162Z,97823.22
2022-08-21T05:15:57.888Z,97823.22
2022-08-21T05:16:13.995Z,97823.69
2022-08-21T05:16:47.550Z,97825.38
2022-08-21T05:17:01.776Z,97823.69
2022-08-21T05:17:16.399Z,97829.56
2022-08-21T05:17:33.336Z,97824.47
2022-08-21T05:17:52.511Z,97832.72
2022-08-21T05:18:14.151Z,97824.50
2022-08-21T05:18:28.079Z,97825.78
2022-08-21T05:18:41.365Z,97833.12
2022-08-21T05:18:56.013Z,97822.34
2022-08-21T05:19:10.995Z,97822.47
2022-08-21T05:19:46.648Z,97827.41
2022-08-21T05:19:59.931Z,97829.22
2022-08-21T05:20:14.797Z,97837.00
2022-08-21T05:20:28.908Z,97827.38
2022-08-21T05:20:43.593Z,97831.47
2022-08-21T05:20:57.711Z,97826.22
2022-08-21T05:21:13.009Z,97827.38
2022-08-21T05:21:26.572Z,97828.16
2022-08-21T05:21:44.899Z,97819.38
2022-08-21T05:21:59.595Z,97826.47
2022-08-21T05:22:13.233Z,97826.56
2022-08-21T05:22:27.459Z,97828.25
2022-08-21T05:22:42.958Z,97825.47
2022-08-21T05:22:58.596Z,97827.47
2022-08-21T05:23:13.547Z,97828.47
2022-08-21T05:23:29.511Z,97830.16
2022-08-21T05:23:44.536Z,97832.25
2022-08-21T05:24:01.435Z,97828.31
2022-08-21T05:24:17.872Z,97840.19
2022-08-21T05:24:31.007Z,97835.66
2022-08-21T05:24:44.638Z,97834.25
2022-08-21T05:24:58.818Z,97830.88
2022-08-21T05:25:13.351Z,97832.00
2022-08-21T05:25:28.291Z,97838.22
2022-08-21T05:25:41.346Z,97833.12
2022-08-21T05:25:57.066Z,97831.56
2022-08-21T05:26:17.963Z,97832.31
2022-08-21T05:26:32.223Z,97827.34
2022-08-21T05:26:47.732Z,97831.25
2022-08-21T05:27:03.940Z,97831.84
2022-08-21T05:27:17.913Z,97829.56
2022-08-21T05:27:31.936Z,97827.56
2022-08-21T05:27:46.001Z,97828.56
2022-08-21T05:28:03.403Z,97835.53
2022-08-21T05:28:20.647Z,97827.34
2022-08-21T05:28:35.064Z,97833.72
2022-08-21T05:28:48.800Z,97827.72
2022-08-21T05:29:02.875Z,97829.31
2022-08-21T05:29:19.040Z,97825.66
2022-08-21T05:29:44.152Z,97831.19
2022-08-21T05:29:58.349Z,97826.25
2022-08-21T05:30:12.139Z,97827.94
2022-08-21T05:30:26.029Z,97828.91
2022-08-21T05:30:42.648Z,97829.78
2022-08-21T05:30:56.266Z,97828.78
2022-08-21T05:31:10.138Z,97831.88
2022-08-21T05:31:25.836Z,97830.03
2022-08-21T05:31:41.861Z,97829.88
2022-08-21T05:31:55.531Z,97830.69
2022-08-21T05:32:12.824Z,97838.50
2022-08-21T05:32:29.480Z,97829.19
2022-08-21T05:32:43.475Z,97840.62
2022-08-21T05:32:59.320Z,97828.84
2022-08-21T05:33:14.409Z,97834.69
2022-08-21T05:33:28.753Z,97836.53
2022-08-21T05:33:43.916Z,97836.22
2022-08-21T05:33:57.891Z,97837.31
2022-08-21T05:34:17.038Z,97831.94
2022-08-21T05:34:34.236Z,97835.91
2022-08-21T05:34:56.236Z,97828.84
2022-08-21T05:35:10.851Z,97835.47
2022-08-21T05:35:25.379Z,97837.78
2022-08-21T05:35:39.269Z,97832.84
2022-08-21T05:35:53.536Z,97828.19
2022-08-21T05:36:16.878Z,97831.63
2022-08-21T05:36:31.885Z,97833.28
2022-08-21T05:36:46.578Z,97835.00
2022-08-21T05:37:20.124Z,97836.81
2022-08-21T05:37:34.214Z,97835.13
2022-08-21T05:37:48.892Z,97829.72
2022-08-21T05:38:02.313Z,97839.91
2022-08-21T05:38:18.133Z,97836.53
2022-08-21T05:38:32.289Z,97835.38
2022-08-21T05:38:46.477Z,97836.09
2022-08-21T05:39:00.156Z,97832.41
2022-08-21T05:39:13.974Z,97840.16
2022-08-21T05:39:27.965Z,97836.78
2022-08-21T05:40:29.544Z,97836.75
2022-08-21T05:40:44.652Z,97832.66
2022-08-21T05:40:58.936Z,97834.53
2022-08-21T05:41:15.599Z,97832.53
2022-08-21T05:41:30.085Z,97838.44
2022-08-21T05:41:43.842Z,97832.47
2022-08-21T05:41:57.843Z,97834.31
2022-08-21T05:42:11.400Z,97837.63
2022-08-21T05:42:29.102Z,97834.38
2022-08-21T05:42:42.908Z,97838.78
2022-08-21T05:43:05.287Z,97840.62
2022-08-21T05:43:18.702Z,97840.62
2022-08-21T05:43:37.203Z,97834.63
2022-08-21T05:43:50.691Z,97839.59
2022-08-21T05:44:40.380Z,97840.62
2022-08-21T05:44:59.942Z,97836.25
2022-08-21T05:45:16.338Z,97833.69
2022-08-21T05:45:52.222Z,97835.94
2022-08-21T05:46:08.203Z,97831.00
2022-08-21T05:46:26.432Z,97833.97
2022-08-21T05:46:39.801Z,97832.84
2022-08-21T05:47:00.741Z,97832.59
2022-08-21T05:47:23.688Z,97829.31
2022-08-21T05:47:42.736Z,97825.47
2022-08-21T06:04:35.377Z,97825.03
2022-08-21T06:04:54.699Z,97831.53
2022-08-21T06:05:36.876Z,97823.16
2022-08-21T06:05:51.211Z,97835.09
2022-08-21T06:06:10.518Z,97829.69
2022-08-21T06:06:37.677Z,97832.53
2022-08-21T06:07:02.741Z,97832.00
2022-08-21T06:07:23.874Z,97832.53
2022-08-21T06:07:37.957Z,97826.00
2022-08-21T06:08:01.508Z,97827.16
2022-08-21T06:08:24.052Z,97831.69
2022-08-21T06:14:56.988Z,97825.19
2022-08-21T06:15:28.899Z,97819.56
2022-08-21T06:16:20.160Z,97827.47
2022-08-21T06:17:01.986Z,97822.72
2022-08-21T06:17:29.220Z,97827.91
2022-08-21T06:17:53.061Z,97820.72
2022-08-21T06:18:40.759Z,97822.41
2022-08-21T06:19:21.963Z,97822.50
2022-08-21T06:19:43.808Z,97829.88
2022-08-21T06:36:09.226Z,97832.56
2022-08-21T06:37:10.360Z,97827.22
2022-08-21T07:38:52.941Z,97851.16
2022-08-21T07:39:07.558Z,97852.84
2022-08-21T07:39:36.502Z,97853.06
2022-08-21T07:40:02.202Z,97852.31
2022-08-21T07:40:18.756Z,97853.97
2022-08-21T07:40:37.582Z,97850.16
2022-08-21T07:41:02.793Z,97853.00
2022-08-21T07:41:26.170Z,97850.16
2022-08-21T07:41:42.705Z,97849.69
2022-08-21T07:42:08.502Z,97846.81
2022-08-21T07:42:28.283Z,97843.66
2022-08-21T07:42:55.964Z,97847.78
2022-08-21T07:43:09.979Z,97842.81
2022-08-21T07:44:09.559Z,97844.34
2022-08-21T07:44:39.727Z,97836.37
2022-08-21T07:45:40.639Z,97842.56
2022-08-21T07:46:40.828Z,97843.84
2022-08-21T07:47:03.014Z,97843.66
2022-08-21T07:47:57.366Z,97844.50
2022-08-21T07:48:22.950Z,97838.72
2022-08-21T07:48:40.583Z,97843.81
2022-08-21T07:49:10.639Z,97837.97
2022-08-21T07:49:26.186Z,97834.00
2022-08-21T07:49:40.859Z,97837.81
2022-08-21T07:49:57.345Z,97837.97
2022-08-21T07:50:22.703Z,97842.50
2022-08-21T07:50:46.335Z,97842.50
2022-08-21T07:51:30.436Z,97830.19
2022-08-21T08:23:57.424Z,97820.34
2022-08-21T08:24:19.194Z,97811.34
2022-08-21T08:24:40.645Z,97818.75
2022-08-21T08:25:09.170Z,97815.50
2022-08-21T08:45:33.444Z,97806.84
2022-08-21T08:46:06.915Z,97806.19
2022-08-21T08:47:02.692Z,97812.59
2022-08-21T08:47:55.326Z,97814.03
2022-08-21T08:48:53.101Z,97806.87
2022-08-21T08:49:22.616Z,97811.75
2022-08-21T08:50:28.407Z,97815.13
2022-08-21T08:51:53.450Z,97814.88
2022-08-21T08:53:11.468Z,97816.72
2022-08-21T08:54:21.890Z,97814.56
2022-08-21T08:55:56.302Z,97809.56
2022-08-21T08:56:43.573Z,97811.41
2022-08-21T09:35:26.221Z,97801.53
2022-08-21T09:36:16.102Z,97801.53
2022-08-21T09:36:39.852Z,97810.41
2022-08-21T09:40:03.135Z,97815.84
2022-08-21T09:41:20.428Z,97806.91
2022-08-21T09:42:11.551Z,97799.38
2022-08-21T09:44:14.809Z,97806.81
2022-08-21T09:45:27.736Z,97812.16
2022-08-21T09:46:51.061Z,97810.22
2022-08-21T09:49:27.769Z,97798.91
2022-08-21T09:50:00.002Z,97793.91
2022-08-21T09:51:13.915Z,97801.38
2022-08-21T09:53:05.634Z,97799.66
2022-08-21T10:54:34.041Z,97806.53
2022-08-21T10:56:03.126Z,97806.53
2022-08-21T10:57:10.851Z,97820.41
2022-08-21T10:59:19.838Z,97809.94
2022-08-21T11:20:28.814Z,97803.50
2022-08-21T11:21:48.252Z,97803.50
2022-08-21T12:04:59.556Z,97777.09
2022-08-21T12:06:37.684Z,97777.09
2022-08-21T12:07:49.881Z,97780.28
2022-08-21T12:09:51.757Z,97788.50
2022-08-21T12:56:41.221Z,97750.03
2022-08-21T13:00:44.252Z,97748.50
2022-08-21T14:20:56.895Z,97726.03
2022-08-21T14:21:59.221Z,97733.75
2022-08-21T14:22:41.107Z,97725.47
2022-08-21T14:36:31.690Z,97718.78
2022-08-21T14:37:09.407Z,97718.78
2022-08-21T14:38:03.919Z,97727.28
2022-08-21T14:39:02.196Z,97728.94
2022-08-21T14:39:27.603Z,97723.75
2022-08-21T14:40:04.085Z,97721.22
2022-08-21T14:41:00.314Z,97715.50
2022-08-21T14:41:41.385Z,97726.94
2022-08-21T14:42:19.319Z,97720.19
2022-08-21T14:43:43.302Z,97720.00
2022-08-21T14:44:09.882Z,97729.81
2022-08-21T14:44:42.229Z,97727.78
2022-08-21T14:46:03.535Z,97727.28
2022-08-21T14:47:58.960Z,97733.31
2022-08-21T14:48:13.119Z,97725.44
2022-08-21T14:48:55.319Z,97729.41
2022-08-21T14:50:07.494Z,97731.59
2022-08-21T14:50:41.791Z,97730.44
2022-08-21T14:51:27.950Z,97734.41
2022-08-21T14:52:10.011Z,97732.97
2022-08-21T14:52:54.282Z,97729.16
2022-08-21T14:54:11.434Z,97733.12
2022-08-21T14:54:44.516Z,97736.44
2022-08-21T14:56:27.894Z,97725.44
2022-08-21T14:57:39.780Z,97731.19
2022-08-21T14:58:47.035Z,97724.44
2022-08-21T14:59:12.599Z,97729.25
2022-08-21T14:59:49.000Z,97728.16
2022-08-21T15:00:36.013Z,97729.75
2022-08-21T15:01:36.234Z,97724.28
2022-08-21T15:03:54.343Z,97729.16
2022-08-21T15:04:45.329Z,97724.19
2022-08-21T15:05:51.920Z,97720.72
2022-08-21T15:06:45.341Z,97719.97
2022-08-21T15:08:01.625Z,97722.53
2022-08-21T15:47:51.495Z,97710.50
2022-08-21T15:48:27.758Z,97718.97
2022-08-21T15:51:37.981Z,97719.19
2022-08-21T15:53:26.389Z,97716.72
2022-08-21T15:54:08.447Z,97715.50
2022-08-21T15:54:29.252Z,97720.81
2022-08-21T15:55:14.903Z,97721.09
2022-08-21T15:56:39.442Z,97716.44
2022-08-21T15:58:27.452Z,97718.28
2022-08-21T16:32:10.676Z,97741.34
2022-08-21T16:32:47.923Z,97737.25
2022-08-21T16:34:01.518Z,97742.72
2022-08-21T16:34:46.292Z,97741.53
2022-08-21T16:38:01.441Z,97733.19
2022-08-21T16:38:33.663Z,97738.19
2022-08-21T16:39:06.564Z,97733.19
2022-08-21T16:39:39.552Z,97730.16
2022-08-21T16:39:53.876Z,97728.59
2022-08-21T16:40:13.103Z,97736.50
2022-08-21T16:40:28.609Z,97733.69
2022-08-21T16:40:44.944Z,97734.31
2022-08-21T16:41:00.871Z,97734.16
2022-08-21T16:41:18.344Z,97735.84
2022-08-21T17:14:55.304Z,97718.06